sensor_id;sensor_type;location;lat;lon;timestamp;pressure;altitude;pressure_sealevel;temperature;humidity
51261;BME280;61705;46.228;24.812;2023-03-14T00:00:59;97449.50;;;-1.08;72.64
51261;BME280;61705;46.228;24.812;2023-03-14T00:03:28;97446.91;;;-1.11;72.88
51261;BME280;61705;46.228;24.812;2023-03-14T00:05:56;97446.88;;;-1.10;73.01
51261;BME280;61705;46.228;24.812;2023-03-14T00:08:23;97447.75;;;-1.11;72.42
51261;BME280;61705;46.228;24.812;2023-03-14T00:10:51;97446.03;;;-1.09;72.52
51261;BME280;61705;46.228;24.812;2023-03-14T00:13:17;97443.41;;;-1.03;71.53
51261;BME280;61705;46.228;24.812;2023-03-14T00:15:44;97442.53;;;-1.00;72.20
51261;BME280;61705;46.228;24.812;2023-03-14T00:18:11;97440.84;;;-1.09;72.29
51261;BME280;61705;46.228;24.812;2023-03-14T00:20:37;97431.34;;;-1.08;72.09
51261;BME280;61705;46.228;24.812;2023-03-14T00:23:04;97428.78;;;-1.16;72.09
51261;BME280;61705;46.228;24.812;2023-03-14T00:25:31;97434.81;;;-1.17;72.79
51261;BME280;61705;46.228;24.812;2023-03-14T00:27:57;97429.66;;;-1.18;72.61
51261;BME280;61705;46.228;24.812;2023-03-14T00:30:24;97430.53;;;-1.20;72.86
51261;BME280;61705;46.228;24.812;2023-03-14T00:32:50;97431.38;;;-1.16;72.83
51261;BME280;61705;46.228;24.812;2023-03-14T00:35:17;97427.03;;;-1.11;72.15
51261;BME280;61705;46.228;24.812;2023-03-14T00:37:44;97429.63;;;-1.12;72.30
51261;BME280;61705;46.228;24.812;2023-03-14T00:40:11;97420.09;;;-1.10;72.29
51261;BME280;61705;46.228;24.812;2023-03-14T00:42:37;97414.94;;;-1.09;71.88
51261;BME280;61705;46.228;24.812;2023-03-14T00:45:06;97407.16;;;-1.12;71.75
51261;BME280;61705;46.228;24.812;2023-03-14T00:47:35;97408.03;;;-1.14;71.87
51261;BME280;61705;46.228;24.812;2023-03-14T00:50:02;97401.97;;;-1.16;72.03
51261;BME280;61705;46.228;24.812;2023-03-14T00:52:28;97402.88;;;-1.24;73.65
51261;BME280;61705;46.228;24.812;2023-03-14T00:54:55;97398.56;;;-1.28;73.90
51261;BME280;61705;46.228;24.812;2023-03-14T00:57:22;97395.13;;;-1.33;74.46
51261;BME280;61705;46.228;24.812;2023-03-14T00:59:48;97395.09;;;-1.27;74.71
51261;BME280;61705;46.228;24.812;2023-03-14T01:02:16;97394.22;;;-1.27;74.88
51261;BME280;61705;46.228;24.812;2023-03-14T01:04:43;97395.13;;;-1.31;75.09
51261;BME280;61705;46.228;24.812;2023-03-14T01:07:10;97395.97;;;-1.34;74.64
51261;BME280;61705;46.228;24.812;2023-03-14T01:09:36;97388.22;;;-1.34;74.57
51261;BME280;61705;46.228;24.812;2023-03-14T01:12:03;97387.34;;;-1.31;74.83
51261;BME280;61705;46.228;24.812;2023-03-14T01:14:30;97381.31;;;-1.33;74.99
51261;BME280;61705;46.228;24.812;2023-03-14T01:16:56;97381.31;;;-1.35;75.10
51261;BME280;61705;46.228;24.812;2023-03-14T01:19:28;97373.53;;;-1.35;74.73
51261;BME280;61705;46.228;24.812;2023-03-14T01:21:55;97376.13;;;-1.33;74.52
51261;BME280;61705;46.228;24.812;2023-03-14T01:24:21;97378.69;;;-1.30;74.82
51261;BME280;61705;46.228;24.812;2023-03-14T01:26:48;97379.56;;;-1.31;74.97
51261;BME280;61705;46.228;24.812;2023-03-14T01:29:14;97376.13;;;-1.32;75.23
51261;BME280;61705;46.228;24.812;2023-03-14T01:31:44;97369.19;;;-1.31;75.07
51261;BME280;61705;46.228;24.812;2023-03-14T01:34:10;97362.31;;;-1.32;75.11
51261;BME280;61705;46.228;24.812;2023-03-14T01:36:37;97357.13;;;-1.38;75.06
51261;BME280;61705;46.228;24.812;2023-03-14T01:39:04;97355.41;;;-1.39;75.26
51261;BME280;61705;46.228;24.812;2023-03-14T01:41:32;97352.84;;;-1.39;75.22
51261;BME280;61705;46.228;24.812;2023-03-14T01:43:59;97344.19;;;-1.40;75.39
51261;BME280;61705;46.228;24.812;2023-03-14T01:51:58;97341.63;;;-1.46;74.99
51261;BME280;61705;46.228;24.812;2023-03-14T01:57:02;97336.44;;;-1.48;74.73
51261;BME280;61705;46.228;24.812;2023-03-14T01:59:31;97318.28;;;-1.48;74.93
51261;BME280;61705;46.228;24.812;2023-03-14T02:01:59;97315.72;;;-1.51;74.89
51261;BME280;61705;46.228;24.812;2023-03-14T02:04:30;97320.06;;;-1.53;75.12
51261;BME280;61705;46.228;24.812;2023-03-14T02:09:41;97318.31;;;-1.52;74.97
51261;BME280;61705;46.228;24.812;2023-03-14T02:12:09;97315.75;;;-1.54;75.43
51261;BME280;61705;46.228;24.812;2023-03-14T02:14:37;97310.56;;;-1.57;75.43
51261;BME280;61705;46.228;24.812;2023-03-14T02:17:05;97307.13;;;-1.59;75.45
51261;BME280;61705;46.228;24.812;2023-03-14T02:22:39;97301.09;;;-1.64;75.77
51261;BME280;61705;46.228;24.812;2023-03-14T02:25:35;97297.63;;;-1.63;75.55
51261;BME280;61705;46.228;24.812;2023-03-14T02:28:06;97302.81;;;-1.66;75.69
51261;BME280;61705;46.228;24.812;2023-03-14T02:30:33;97306.28;;;-1.62;75.75
51261;BME280;61705;46.228;24.812;2023-03-14T02:33:07;97306.25;;;-1.61;75.80
51261;BME280;61705;46.228;24.812;2023-03-14T02:35:39;97302.81;;;-1.63;75.71
51261;BME280;61705;46.228;24.812;2023-03-14T02:38:22;97303.69;;;-1.64;75.71
51261;BME280;61705;46.228;24.812;2023-03-14T02:40:50;97303.69;;;-1.65;75.95
51261;BME280;61705;46.228;24.812;2023-03-14T02:43:17;97295.91;;;-1.62;75.74
51261;BME280;61705;46.228;24.812;2023-03-14T02:45:46;97296.78;;;-1.63;75.67
51261;BME280;61705;46.228;24.812;2023-03-14T02:48:22;97294.16;;;-1.57;75.80
51261;BME280;61705;46.228;24.812;2023-03-14T02:50:53;97297.59;;;-1.55;75.99
51261;BME280;61705;46.228;24.812;2023-03-14T02:53:29;97296.72;;;-1.54;75.81
51261;BME280;61705;46.228;24.812;2023-03-14T02:55:56;97288.97;;;-1.57;75.89
51261;BME280;61705;46.228;24.812;2023-03-14T02:58:23;97292.41;;;-1.52;75.92
51261;BME280;61705;46.228;24.812;2023-03-14T03:00:50;97296.72;;;-1.48;75.62
51261;BME280;61705;46.228;24.812;2023-03-14T03:03:17;97303.63;;;-1.52;75.50
51261;BME280;61705;46.228;24.812;2023-03-14T03:05:48;97292.44;;;-1.54;76.04
51261;BME280;61705;46.228;24.812;2023-03-14T03:08:14;97301.06;;;-1.58;75.93
51261;BME280;61705;46.228;24.812;2023-03-14T03:10:41;97304.50;;;-1.54;76.21
51261;BME280;61705;46.228;24.812;2023-03-14T03:13:08;97297.56;;;-1.51;75.30
51261;BME280;61705;46.228;24.812;2023-03-14T03:15:34;97288.94;;;-1.44;74.96
51261;BME280;61705;46.228;24.812;2023-03-14T03:18:01;97287.25;;;-1.57;74.82
51261;BME280;61705;46.228;24.812;2023-03-14T03:20:28;97297.69;;;-1.71;75.36
51261;BME280;61705;46.228;24.812;2023-03-14T03:22:54;97289.94;;;-1.86;75.61
51261;BME280;61705;46.228;24.812;2023-03-14T03:25:21;97283.94;;;-1.94;76.08
51261;BME280;61705;46.228;24.812;2023-03-14T03:27:48;97283.03;;;-1.78;75.56
51261;BME280;61705;46.228;24.812;2023-03-14T03:30:15;97285.59;;;-1.82;75.86
51261;BME280;61705;46.228;24.812;2023-03-14T03:32:44;97279.59;;;-1.87;75.99
51261;BME280;61705;46.228;24.812;2023-03-14T03:35:11;97284.78;;;-1.87;76.41
51261;BME280;61705;46.228;24.812;2023-03-14T03:37:38;97282.19;;;-1.92;76.38
51261;BME280;61705;46.228;24.812;2023-03-14T03:40:06;97273.53;;;-1.85;77.14
51261;BME280;61705;46.228;24.812;2023-03-14T03:42:34;97276.97;;;-1.81;76.91
51261;BME280;61705;46.228;24.812;2023-03-14T03:45:01;97282.13;;;-1.71;77.37
51261;BME280;61705;46.228;24.812;2023-03-14T03:47:30;97276.06;;;-1.68;76.93
51261;BME280;61705;46.228;24.812;2023-03-14T03:49:57;97277.78;;;-1.64;76.21
51261;BME280;61705;46.228;24.812;2023-03-14T03:52:24;97279.47;;;-1.58;75.74
51261;BME280;61705;46.228;24.812;2023-03-14T03:54:50;97274.28;;;-1.58;75.48
51261;BME280;61705;46.228;24.812;2023-03-14T03:57:17;97271.72;;;-1.57;75.94
51261;BME280;61705;46.228;24.812;2023-03-14T03:59:44;97276.88;;;-1.54;75.77
51261;BME280;61705;46.228;24.812;2023-03-14T04:02:10;97275.97;;;-1.48;76.18
51261;BME280;61705;46.228;24.812;2023-03-14T04:04:37;97262.16;;;-1.46;76.35
51261;BME280;61705;46.228;24.812;2023-03-14T04:07:05;97271.66;;;-1.45;75.64
51261;BME280;61705;46.228;24.812;2023-03-14T04:09:32;97256.13;;;-1.49;75.89
51261;BME280;61705;46.228;24.812;2023-03-14T04:11:58;97255.25;;;-1.51;76.03
51261;BME280;61705;46.228;24.812;2023-03-14T04:14:25;97259.59;;;-1.52;76.14
51261;BME280;61705;46.228;24.812;2023-03-14T04:16:52;97263.06;;;-1.53;76.27
51261;BME280;61705;46.228;24.812;2023-03-14T04:19:20;97257.03;;;-1.53;76.61
51261;BME280;61705;46.228;24.812;2023-03-14T04:21:47;97250.09;;;-1.51;76.05
51261;BME280;61705;46.228;24.812;2023-03-14T04:24:13;97249.25;;;-1.55;76.82
51261;BME280;61705;46.228;24.812;2023-03-14T04:26:40;97248.41;;;-1.60;76.41
51261;BME280;61705;46.228;24.812;2023-03-14T04:29:07;97246.66;;;-1.56;76.48
51261;BME280;61705;46.228;24.812;2023-03-14T04:31:33;97245.81;;;-1.54;75.83
51261;BME280;61705;46.228;24.812;2023-03-14T04:34:00;97240.56;;;-1.51;75.77
51261;BME280;61705;46.228;24.812;2023-03-14T04:36:27;97238.88;;;-1.58;75.44
51261;BME280;61705;46.228;24.812;2023-03-14T04:38:54;97236.31;;;-1.56;75.20
51261;BME280;61705;46.228;24.812;2023-03-14T04:41:20;97233.69;;;-1.58;75.59
51261;BME280;61705;46.228;24.812;2023-03-14T04:43:47;97234.53;;;-1.51;75.83
51261;BME280;61705;46.228;24.812;2023-03-14T04:46:14;97229.38;;;-1.54;75.71
51261;BME280;61705;46.228;24.812;2023-03-14T04:48:41;97233.69;;;-1.55;75.75
51261;BME280;61705;46.228;24.812;2023-03-14T04:51:07;97228.50;;;-1.55;75.98
51261;BME280;61705;46.228;24.812;2023-03-14T04:53:34;97232.81;;;-1.52;76.35
51261;BME280;61705;46.228;24.812;2023-03-14T04:56:02;97233.69;;;-1.55;76.30
51261;BME280;61705;46.228;24.812;2023-03-14T04:58:29;97227.63;;;-1.51;75.78
51261;BME280;61705;46.228;24.812;2023-03-14T05:00:55;97224.16;;;-1.51;75.91
51261;BME280;61705;46.228;24.812;2023-03-14T05:03:27;97223.28;;;-1.46;76.01
51261;BME280;61705;46.228;24.812;2023-03-14T05:05:54;97225.84;;;-1.36;75.08
51261;BME280;61705;46.228;24.812;2023-03-14T05:08:21;97216.28;;;-1.30;74.80
51261;BME280;61705;46.228;24.812;2023-03-14T05:10:54;97218.88;;;-1.31;75.16
51261;BME280;61705;46.228;24.812;2023-03-14T05:13:23;97221.44;;;-1.27;75.27
51261;BME280;61705;46.228;24.812;2023-03-14T05:15:50;97218.88;;;-1.28;75.39
51261;BME280;61705;46.228;24.812;2023-03-14T05:18:18;97216.22;;;-1.19;74.75
51261;BME280;61705;46.228;24.812;2023-03-14T05:20:44;97213.53;;;-1.10;74.78
51261;BME280;61705;46.228;24.812;2023-03-14T05:23:11;97208.31;;;-1.04;75.04
51261;BME280;61705;46.228;24.812;2023-03-14T05:25:38;97204.88;;;-1.04;75.08
51261;BME280;61705;46.228;24.812;2023-03-14T05:28:04;97203.97;;;-0.99;75.06
51261;BME280;61705;46.228;24.812;2023-03-14T05:30:31;97197.88;;;-0.96;74.55
51261;BME280;61705;46.228;24.812;2023-03-14T05:33:03;97203.91;;;-0.88;74.35
51261;BME280;61705;46.228;24.812;2023-03-14T05:35:29;97191.75;;;-0.81;74.00
51261;BME280;61705;46.228;24.812;2023-03-14T05:37:56;97191.66;;;-0.74;73.84
51261;BME280;61705;46.228;24.812;2023-03-14T05:40:23;97186.31;;;-0.58;73.67
51261;BME280;61705;46.228;24.812;2023-03-14T05:42:50;97188.00;;;-0.53;73.85
51261;BME280;61705;46.228;24.812;2023-03-14T05:45:16;97187.91;;;-0.45;73.49
51261;BME280;61705;46.228;24.812;2023-03-14T05:47:43;97189.69;;;-0.47;73.93
51261;BME280;61705;46.228;24.812;2023-03-14T05:50:10;97184.50;;;-0.47;74.00
51261;BME280;61705;46.228;24.812;2023-03-14T05:52:37;97191.41;;;-0.46;73.73
51261;BME280;61705;46.228;24.812;2023-03-14T05:55:04;97190.50;;;-0.42;73.79
51261;BME280;61705;46.228;24.812;2023-03-14T05:57:31;97193.09;;;-0.40;73.54
51261;BME280;61705;46.228;24.812;2023-03-14T05:59:57;97193.97;;;-0.43;73.39
51261;BME280;61705;46.228;24.812;2023-03-14T06:02:24;97193.88;;;-0.35;73.32
51261;BME280;61705;46.228;24.812;2023-03-14T06:04:51;97186.00;;;-0.28;73.07
51261;BME280;61705;46.228;24.812;2023-03-14T06:07:18;97196.34;;;-0.20;72.85
51261;BME280;61705;46.228;24.812;2023-03-14T06:09:45;97184.06;;;-0.06;72.78
51261;BME280;61705;46.228;24.812;2023-03-14T06:12:11;97170.09;;;0.03;72.73
51261;BME280;61705;46.228;24.812;2023-03-14T06:14:38;97162.19;;;0.12;72.32
51261;BME280;61705;46.228;24.812;2023-03-14T06:17:05;97168.09;;;0.25;72.26
51261;BME280;61705;46.228;24.812;2023-03-14T06:19:31;97160.22;;;0.30;72.00
51261;BME280;61705;46.228;24.812;2023-03-14T06:21:58;97152.31;;;0.39;71.94
51261;BME280;61705;46.228;24.812;2023-03-14T06:24:25;97143.50;;;0.49;71.65
51261;BME280;61705;46.228;24.812;2023-03-14T06:26:51;97146.91;;;0.53;71.77
51261;BME280;61705;46.228;24.812;2023-03-14T06:29:21;97148.59;;;0.57;71.47
51261;BME280;61705;46.228;24.812;2023-03-14T06:31:48;97146.81;;;0.62;71.67
51261;BME280;61705;46.228;24.812;2023-03-14T06:34:14;97149.22;;;0.73;71.37
51261;BME280;61705;46.228;24.812;2023-03-14T06:36:41;97152.56;;;0.82;71.22
51261;BME280;61705;46.228;24.812;2023-03-14T06:39:08;97142.06;;;0.87;71.04
51261;BME280;61705;46.228;24.812;2023-03-14T06:41:34;97149.66;;;1.01;71.07
51261;BME280;61705;46.228;24.812;2023-03-14T06:44:01;97140.91;;;1.06;70.76
51261;BME280;61705;46.228;24.812;2023-03-14T06:46:28;97139.09;;;1.10;70.60
51261;BME280;61705;46.228;24.812;2023-03-14T06:48:55;97137.28;;;1.15;70.71
51261;BME280;61705;46.228;24.812;2023-03-14T06:51:21;97132.69;;;1.29;70.44
51261;BME280;61705;46.228;24.812;2023-03-14T06:53:48;97130.56;;;1.50;70.06
51261;BME280;61705;46.228;24.812;2023-03-14T06:56:15;97123.47;;;1.59;69.69
51261;BME280;61705;46.228;24.812;2023-03-14T06:58:42;97117.19;;;1.70;69.60
51261;BME280;61705;46.228;24.812;2023-03-14T07:01:22;97121.03;;;1.94;69.45
51261;BME280;61705;46.228;24.812;2023-03-14T07:03:49;97108.47;;;2.14;69.08
51261;BME280;61705;46.228;24.812;2023-03-14T07:06:16;97100.41;;;2.25;68.60
51261;BME280;61705;46.228;24.812;2023-03-14T07:08:46;97104.56;;;2.33;68.49
51261;BME280;61705;46.228;24.812;2023-03-14T07:11:13;97100.88;;;2.42;68.47
51261;BME280;61705;46.228;24.812;2023-03-14T07:13:40;97092.97;;;2.47;68.47
51261;BME280;61705;46.228;24.812;2023-03-14T07:16:07;97089.88;;;2.68;68.08
51261;BME280;61705;46.228;24.812;2023-03-14T07:18:34;97090.69;;;2.70;68.01
51261;BME280;61705;46.228;24.812;2023-03-14T07:21:01;97087.72;;;2.85;67.96
51261;BME280;61705;46.228;24.812;2023-03-14T07:23:28;97085.84;;;2.91;67.88
51261;BME280;61705;46.228;24.812;2023-03-14T07:25:56;97081.28;;;2.99;67.80
51261;BME280;61705;46.228;24.812;2023-03-14T07:28:22;97086.25;;;3.09;67.80
51261;BME280;61705;46.228;24.812;2023-03-14T07:30:49;97073.81;;;3.19;67.54
51261;BME280;61705;46.228;24.812;2023-03-14T07:33:16;97080.44;;;3.31;67.30
51261;BME280;61705;46.228;24.812;2023-03-14T07:35:43;97067.00;;;3.46;66.67
51261;BME280;61705;46.228;24.812;2023-03-14T07:38:10;97065.78;;;3.60;66.59
51261;BME280;61705;46.228;24.812;2023-03-14T07:40:38;97060.75;;;3.83;66.44
51261;BME280;61705;46.228;24.812;2023-03-14T07:43:05;97060.16;;;4.03;65.86
51261;BME280;61705;46.228;24.812;2023-03-14T07:45:31;97056.28;;;4.16;65.62
51261;BME280;61705;46.228;24.812;2023-03-14T07:48:07;97052.88;;;4.42;65.26
51261;BME280;61705;46.228;24.812;2023-03-14T07:50:34;97048.34;;;4.75;63.98
51261;BME280;61705;46.228;24.812;2023-03-14T07:53:01;97048.41;;;4.99;63.17
51261;BME280;61705;46.228;24.812;2023-03-14T07:55:27;97037.25;;;5.19;62.89
51261;BME280;61705;46.228;24.812;2023-03-14T07:57:54;97033.28;;;5.34;61.12
51261;BME280;61705;46.228;24.812;2023-03-14T08:00:21;97028.28;;;5.51;61.24
51261;BME280;61705;46.228;24.812;2023-03-14T08:02:48;97028.19;;;5.54;61.33
51261;BME280;61705;46.228;24.812;2023-03-14T08:05:15;97017.94;;;5.72;60.75
51261;BME280;61705;46.228;24.812;2023-03-14T08:07:41;97018.31;;;5.84;60.88
51261;BME280;61705;46.228;24.812;2023-03-14T08:10:08;97006.50;;;5.98;60.11
51261;BME280;61705;46.228;24.812;2023-03-14T08:12:35;97005.72;;;6.17;59.79
51261;BME280;61705;46.228;24.812;2023-03-14T08:15:02;96993.28;;;6.45;58.56
51261;BME280;61705;46.228;24.812;2023-03-14T08:17:28;96993.09;;;6.49;58.62
51261;BME280;61705;46.228;24.812;2023-03-14T08:19:55;96977.47;;;6.68;58.25
51261;BME280;61705;46.228;24.812;2023-03-14T08:22:22;96968.69;;;6.89;57.91
51261;BME280;61705;46.228;24.812;2023-03-14T08:24:49;96967.59;;;6.95;57.81
51261;BME280;61705;46.228;24.812;2023-03-14T08:27:15;96960.47;;;7.18;57.35
51261;BME280;61705;46.228;24.812;2023-03-14T08:29:42;96953.97;;;7.26;57.12
51261;BME280;61705;46.228;24.812;2023-03-14T08:32:09;96950.16;;;7.33;56.75
51261;BME280;61705;46.228;24.812;2023-03-14T08:34:36;96950.13;;;7.54;55.91
51261;BME280;61705;46.228;24.812;2023-03-14T08:37:05;96933.66;;;7.69;55.87
51261;BME280;61705;46.228;24.812;2023-03-14T08:39:49;96929.31;;;7.87;55.04
51261;BME280;61705;46.228;24.812;2023-03-14T08:42:15;96928.66;;;8.01;54.75
51261;BME280;61705;46.228;24.812;2023-03-14T08:44:42;96932.44;;;8.14;54.48
51261;BME280;61705;46.228;24.812;2023-03-14T08:47:08;96931.13;;;8.23;54.53
51261;BME280;61705;46.228;24.812;2023-03-14T08:49:38;96923.72;;;8.31;54.21
51261;BME280;61705;46.228;24.812;2023-03-14T08:52:05;96915.09;;;8.46;53.42
51261;BME280;61705;46.228;24.812;2023-03-14T08:54:31;96913.09;;;8.51;53.27
51261;BME280;61705;46.228;24.812;2023-03-14T08:56:58;96907.19;;;8.46;52.89
51261;BME280;61705;46.228;24.812;2023-03-14T08:59:24;96910.91;;;8.60;53.10
51261;BME280;61705;46.228;24.812;2023-03-14T09:01:51;96912.78;;;8.58;53.26
51261;BME280;61705;46.228;24.812;2023-03-14T09:04:18;96906.34;;;8.63;53.09
51261;BME280;61705;46.228;24.812;2023-03-14T09:06:44;96904.41;;;8.84;52.63
51261;BME280;61705;46.228;24.812;2023-03-14T09:09:11;96901.59;;;9.05;52.02
51261;BME280;61705;46.228;24.812;2023-03-14T09:11:40;96902.25;;;9.25;51.54
51261;BME280;61705;46.228;24.812;2023-03-14T09:14:07;96896.38;;;9.54;50.58
51261;BME280;61705;46.228;24.812;2023-03-14T09:16:34;96897.75;;;9.77;50.60
51261;BME280;61705;46.228;24.812;2023-03-14T09:19:00;96885.94;;;9.84;48.82
51261;BME280;61705;46.228;24.812;2023-03-14T09:21:27;96881.75;;;10.11;48.94
51261;BME280;61705;46.228;24.812;2023-03-14T09:23:54;96878.25;;;10.42;47.92
51261;BME280;61705;46.228;24.812;2023-03-14T09:26:20;96874.50;;;10.47;47.43
51261;BME280;61705;46.228;24.812;2023-03-14T09:28:49;96872.88;;;10.74;46.92
51261;BME280;61705;46.228;24.812;2023-03-14T09:31:16;96869.97;;;10.93;46.14
51261;BME280;61705;46.228;24.812;2023-03-14T09:33:42;96866.63;;;11.05;45.78
51261;BME280;61705;46.228;24.812;2023-03-14T09:36:10;96862.56;;;11.14;45.41
51261;BME280;61705;46.228;24.812;2023-03-14T09:38:42;96856.16;;;11.18;44.94
51261;BME280;61705;46.228;24.812;2023-03-14T09:41:13;96843.78;;;11.19;45.27
51261;BME280;61705;46.228;24.812;2023-03-14T09:43:40;96837.31;;;11.51;44.40
51261;BME280;61705;46.228;24.812;2023-03-14T09:46:09;96833.63;;;11.68;42.87
51261;BME280;61705;46.228;24.812;2023-03-14T09:48:37;96831.41;;;11.89;42.74
51261;BME280;61705;46.228;24.812;2023-03-14T09:51:05;96825.03;;;12.06;42.70
51261;BME280;61705;46.228;24.812;2023-03-14T09:53:42;96838.59;;;12.28;41.89
51261;BME280;61705;46.228;24.812;2023-03-14T09:56:12;96837.75;;;12.41;41.26
51261;BME280;61705;46.228;24.812;2023-03-14T09:58:40;96839.81;;;12.50;41.29
51261;BME280;61705;46.228;24.812;2023-03-14T10:01:11;96823.25;;;12.46;40.96
51261;BME280;61705;46.228;24.812;2023-03-14T10:03:40;96815.22;;;12.61;41.01
51261;BME280;61705;46.228;24.812;2023-03-14T10:06:11;96812.41;;;12.89;40.31
51261;BME280;61705;46.228;24.812;2023-03-14T10:08:41;96812.72;;;13.10;39.61
51261;BME280;61705;46.228;24.812;2023-03-14T10:11:17;96806.59;;;13.10;39.56
51261;BME280;61705;46.228;24.812;2023-03-14T10:14:27;96801.28;;;13.35;39.61
51261;BME280;61705;46.228;24.812;2023-03-14T10:16:45;96784.59;;;13.46;38.93
51261;BME280;61705;46.228;24.812;2023-03-14T10:19:13;96772.84;;;13.37;38.08
51261;BME280;61705;46.228;24.812;2023-03-14T10:21:43;96772.47;;;13.55;36.99
51261;BME280;61705;46.228;24.812;2023-03-14T10:24:18;96771.72;;;13.52;36.59
51261;BME280;61705;46.228;24.812;2023-03-14T10:26:52;96762.78;;;13.54;37.02
51261;BME280;61705;46.228;24.812;2023-03-14T10:29:18;96760.28;;;13.76;36.17
51261;BME280;61705;46.228;24.812;2023-03-14T10:31:57;96758.94;;;13.94;36.48
51261;BME280;61705;46.228;24.812;2023-03-14T10:34:28;96750.63;;;13.99;36.38
51261;BME280;61705;46.228;24.812;2023-03-14T10:36:56;96749.00;;;14.09;36.10
51261;BME280;61705;46.228;24.812;2023-03-14T10:39:25;96734.75;;;14.10;36.47
51261;BME280;61705;46.228;24.812;2023-03-14T10:42:04;96739.84;;;14.25;35.48
51261;BME280;61705;46.228;24.812;2023-03-14T10:44:34;96731.84;;;14.49;34.87
51261;BME280;61705;46.228;24.812;2023-03-14T10:47:04;96731.84;;;14.49;34.87
51261;BME280;61705;46.228;24.812;2023-03-14T10:49:32;96712.34;;;14.83;34.77
51261;BME280;61705;46.228;24.812;2023-03-14T10:52:14;96719.09;;;14.76;33.25
51261;BME280;61705;46.228;24.812;2023-03-14T10:54:41;96702.31;;;14.76;34.31
51261;BME280;61705;46.228;24.812;2023-03-14T10:57:12;96710.66;;;14.93;34.47
51261;BME280;61705;46.228;24.812;2023-03-14T10:59:39;96696.75;;;15.01;33.32
51261;BME280;61705;46.228;24.812;2023-03-14T11:07:40;96676.03;;;15.27;32.44
51261;BME280;61705;46.228;24.812;2023-03-14T11:24:33;96650.69;;;15.67;30.70
51261;BME280;61705;46.228;24.812;2023-03-14T11:27:21;96653.88;;;15.49;31.23
51261;BME280;61705;46.228;24.812;2023-03-14T11:32:42;96637.66;;;16.26;31.29
51261;BME280;61705;46.228;24.812;2023-03-14T11:35:23;96634.41;;;16.44;30.29
51261;BME280;61705;46.228;24.812;2023-03-14T11:40:58;96611.88;;;16.57;29.66
51261;BME280;61705;46.228;24.812;2023-03-14T11:43:29;96610.41;;;16.44;29.81
51261;BME280;61705;46.228;24.812;2023-03-14T11:46:20;96598.09;;;16.52;28.33
51261;BME280;61705;46.228;24.812;2023-03-14T11:48:56;96598.06;;;16.43;29.29
51261;BME280;61705;46.228;24.812;2023-03-14T11:51:35;96593.03;;;16.49;29.59
51261;BME280;61705;46.228;24.812;2023-03-14T11:56:50;96576.88;;;16.72;28.93
51261;BME280;61705;46.228;24.812;2023-03-14T11:59:26;96573.16;;;16.63;28.60
51261;BME280;61705;46.228;24.812;2023-03-14T12:02:04;96574.22;;;16.41;28.80
51261;BME280;61705;46.228;24.812;2023-03-14T12:07:34;96560.56;;;16.65;28.65
51261;BME280;61705;46.228;24.812;2023-03-14T12:10:03;96556.69;;;16.89;28.38
51261;BME280;61705;46.228;24.812;2023-03-14T12:12:32;96549.47;;;17.20;28.38
51261;BME280;61705;46.228;24.812;2023-03-14T12:15:02;96544.81;;;17.12;28.56
51261;BME280;61705;46.228;24.812;2023-03-14T12:17:39;96537.13;;;17.38;28.70
51261;BME280;61705;46.228;24.812;2023-03-14T12:20:25;96533.28;;;17.12;28.56
51261;BME280;61705;46.228;24.812;2023-03-14T12:23:05;96522.00;;;16.89;28.32
51261;BME280;61705;46.228;24.812;2023-03-14T12:25:33;96515.72;;;16.90;28.45
51261;BME280;61705;46.228;24.812;2023-03-14T12:28:21;96508.66;;;16.89;27.92
51261;BME280;61705;46.228;24.812;2023-03-14T12:30:48;96497.03;;;16.90;28.55
51261;BME280;61705;46.228;24.812;2023-03-14T12:35:50;96501.53;;;17.09;28.51
51261;BME280;61705;46.228;24.812;2023-03-14T12:38:29;96496.78;;;17.22;27.58
51261;BME280;61705;46.228;24.812;2023-03-14T12:41:19;96496.06;;;17.10;28.45
51261;BME280;61705;46.228;24.812;2023-03-14T12:43:49;96482.00;;;17.08;27.76
51261;BME280;61705;46.228;24.812;2023-03-14T12:46:22;96486.66;;;16.96;27.66
51261;BME280;61705;46.228;24.812;2023-03-14T12:51:39;96477.34;;;16.91;28.17
51261;BME280;61705;46.228;24.812;2023-03-14T12:54:21;96471.44;;;16.87;28.41
51261;BME280;61705;46.228;24.812;2023-03-14T13:00:18;96465.00;;;16.80;27.66
51261;BME280;61705;46.228;24.812;2023-03-14T13:02:52;96463.25;;;16.69;28.15
51261;BME280;61705;46.228;24.812;2023-03-14T13:05:25;96456.63;;;16.64;28.27
51261;BME280;61705;46.228;24.812;2023-03-14T13:08:02;96450.19;;;16.66;28.39
51261;BME280;61705;46.228;24.812;2023-03-14T13:10:30;96448.16;;;16.89;28.12
51261;BME280;61705;46.228;24.812;2023-03-14T13:13:23;96441.69;;;17.11;27.79
51261;BME280;61705;46.228;24.812;2023-03-14T13:15:59;96444.91;;;17.34;27.48
51261;BME280;61705;46.228;24.812;2023-03-14T13:18:36;96432.94;;;17.48;27.69
51261;BME280;61705;46.228;24.812;2023-03-14T13:21:34;96430.41;;;17.46;26.91
51261;BME280;61705;46.228;24.812;2023-03-14T13:24:04;96427.88;;;17.64;27.32
51261;BME280;61705;46.228;24.812;2023-03-14T13:26:39;96422.78;;;17.71;27.52
51261;BME280;61705;46.228;24.812;2023-03-14T13:29:16;96418.97;;;17.73;26.28
51261;BME280;61705;46.228;24.812;2023-03-14T13:31:45;96408.00;;;17.76;26.69
51261;BME280;61705;46.228;24.812;2023-03-14T13:34:15;96409.38;;;17.90;26.80
51261;BME280;61705;46.228;24.812;2023-03-14T13:36:43;96398.59;;;18.10;26.86
51261;BME280;61705;46.228;24.812;2023-03-14T13:39:17;96395.59;;;18.22;26.28
51261;BME280;61705;46.228;24.812;2023-03-14T13:41:46;96380.78;;;18.28;26.15
51261;BME280;61705;46.228;24.812;2023-03-14T13:44:16;96381.28;;;18.14;26.02
51261;BME280;61705;46.228;24.812;2023-03-14T13:46:42;96380.78;;;18.46;24.90
51261;BME280;61705;46.228;24.812;2023-03-14T13:49:12;96381.38;;;18.50;25.27
51261;BME280;61705;46.228;24.812;2023-03-14T13:51:43;96379.34;;;18.34;24.61
51261;BME280;61705;46.228;24.812;2023-03-14T13:54:19;96367.28;;;18.47;24.18
51261;BME280;61705;46.228;24.812;2023-03-14T13:56:47;96368.66;;;18.69;23.83